sensor_id;sensor_type;location;lat;lon;timestamp;P1;durP1;ratioP1;P2;durP2;ratioP2
47367;SDS011;34646;47.964;7.982;2023-02-11T00:00:37;9.57;;;5.00;;
47367;SDS011;34646;47.964;7.982;2023-02-11T00:06:39;10.35;;;5.53;;
47367;SDS011;34646;47.964;7.982;2023-02-11T00:12:40;12.10;;;5.17;;
47367;SDS011;34646;47.964;7.982;2023-02-11T00:18:42;10.15;;;4.72;;
47367;SDS011;34646;47.964;7.982;2023-02-11T00:24:43;10.57;;;5.53;;
47367;SDS011;34646;47.964;7.982;2023-02-11T00:30:44;6.33;;;4.67;;
47367;SDS011;34646;47.964;7.982;2023-02-11T00:36:45;9.03;;;4.77;;
47367;SDS011;34646;47.964;7.982;2023-02-11T00:42:48;9.50;;;4.97;;
47367;SDS011;34646;47.964;7.982;2023-02-11T00:48:50;7.97;;;4.40;;
47367;SDS011;34646;47.964;7.982;2023-02-11T00:54:54;10.25;;;4.85;;
47367;SDS011;34646;47.964;7.982;2023-02-11T01:00:55;9.17;;;4.57;;
47367;SDS011;34646;47.964;7.982;2023-02-11T01:06:58;8.32;;;4.25;;
47367;SDS011;34646;47.964;7.982;2023-02-11T01:12:59;9.60;;;4.97;;
47367;SDS011;34646;47.964;7.982;2023-02-11T01:19:00;9.30;;;4.50;;
47367;SDS011;34646;47.964;7.982;2023-02-11T01:25:02;10.23;;;4.30;;
47367;SDS011;34646;47.964;7.982;2023-02-11T01:31:03;8.48;;;4.75;;
47367;SDS011;34646;47.964;7.982;2023-02-11T01:37:06;7.20;;;4.30;;
47367;SDS011;34646;47.964;7.982;2023-02-11T01:43:09;8.17;;;4.07;;
47367;SDS011;34646;47.964;7.982;2023-02-11T01:49:11;9.25;;;4.20;;
47367;SDS011;34646;47.964;7.982;2023-02-11T01:55:17;6.63;;;3.97;;
47367;SDS011;34646;47.964;7.982;2023-02-11T02:01:36;8.65;;;4.50;;
47367;SDS011;34646;47.964;7.982;2023-02-11T02:14:09;8.00;;;4.20;;
47367;SDS011;34646;47.964;7.982;2023-02-11T02:20:15;9.43;;;5.13;;
47367;SDS011;34646;47.964;7.982;2023-02-11T02:39:06;5.87;;;3.57;;
47367;SDS011;34646;47.964;7.982;2023-02-11T02:45:16;6.50;;;3.95;;
47367;SDS011;34646;47.964;7.982;2023-02-11T02:51:25;6.30;;;3.72;;
47367;SDS011;34646;47.964;7.982;2023-02-11T03:16:01;6.88;;;3.75;;
47367;SDS011;34646;47.964;7.982;2023-02-11T03:22:24;5.28;;;3.65;;
47367;SDS011;34646;47.964;7.982;2023-02-11T03:28:42;6.80;;;3.28;;
47367;SDS011;34646;47.964;7.982;2023-02-11T03:40:58;4.93;;;3.20;;
47367;SDS011;34646;47.964;7.982;2023-02-11T03:47:01;6.38;;;3.42;;
47367;SDS011;34646;47.964;7.982;2023-02-11T03:53:04;6.88;;;3.72;;
47367;SDS011;34646;47.964;7.982;2023-02-11T03:59:06;6.63;;;3.40;;
47367;SDS011;34646;47.964;7.982;2023-02-11T04:05:12;5.35;;;2.92;;
47367;SDS011;34646;47.964;7.982;2023-02-11T04:11:14;7.97;;;3.35;;
47367;SDS011;34646;47.964;7.982;2023-02-11T04:17:16;4.80;;;3.20;;
47367;SDS011;34646;47.964;7.982;2023-02-11T04:23:17;6.23;;;3.27;;
47367;SDS011;34646;47.964;7.982;2023-02-11T04:29:18;5.13;;;3.60;;
47367;SDS011;34646;47.964;7.982;2023-02-11T04:35:19;5.50;;;3.30;;
47367;SDS011;34646;47.964;7.982;2023-02-11T04:41:20;6.32;;;3.55;;
47367;SDS011;34646;47.964;7.982;2023-02-11T04:47:21;4.67;;;3.03;;
47367;SDS011;34646;47.964;7.982;2023-02-11T04:53:22;5.23;;;3.20;;
47367;SDS011;34646;47.964;7.982;2023-02-11T04:59:24;6.57;;;3.37;;
47367;SDS011;34646;47.964;7.982;2023-02-11T05:05:25;5.97;;;3.40;;
47367;SDS011;34646;47.964;7.982;2023-02-11T05:11:26;6.73;;;3.37;;
47367;SDS011;34646;47.964;7.982;2023-02-11T05:17:27;5.90;;;3.07;;
47367;SDS011;34646;47.964;7.982;2023-02-11T05:23:27;5.97;;;2.90;;
47367;SDS011;34646;47.964;7.982;2023-02-11T05:29:28;5.53;;;3.13;;
47367;SDS011;34646;47.964;7.982;2023-02-11T05:35:29;6.68;;;3.40;;
47367;SDS011;34646;47.964;7.982;2023-02-11T05:41:30;4.60;;;2.73;;
47367;SDS011;34646;47.964;7.982;2023-02-11T05:47:31;4.50;;;3.03;;
47367;SDS011;34646;47.964;7.982;2023-02-11T05:53:32;5.20;;;3.10;;
47367;SDS011;34646;47.964;7.982;2023-02-11T05:59:33;4.70;;;2.77;;
47367;SDS011;34646;47.964;7.982;2023-02-11T06:05:33;5.03;;;3.10;;
47367;SDS011;34646;47.964;7.982;2023-02-11T06:11:34;5.47;;;2.97;;
47367;SDS011;34646;47.964;7.982;2023-02-11T06:17:35;5.43;;;2.80;;
47367;SDS011;34646;47.964;7.982;2023-02-11T06:23:37;4.93;;;2.70;;
47367;SDS011;34646;47.964;7.982;2023-02-11T06:29:38;4.53;;;2.72;;
47367;SDS011;34646;47.964;7.982;2023-02-11T06:35:39;3.60;;;2.70;;
47367;SDS011;34646;47.964;7.982;2023-02-11T06:41:39;4.10;;;2.63;;
47367;SDS011;34646;47.964;7.982;2023-02-11T06:47:40;4.97;;;2.73;;
47367;SDS011;34646;47.964;7.982;2023-02-11T06:53:45;4.23;;;2.60;;
47367;SDS011;34646;47.964;7.982;2023-02-11T06:59:46;3.78;;;2.67;;
47367;SDS011;34646;47.964;7.982;2023-02-11T07:05:47;5.60;;;2.70;;
47367;SDS011;34646;47.964;7.982;2023-02-11T07:11:48;3.97;;;2.50;;
47367;SDS011;34646;47.964;7.982;2023-02-11T07:17:48;3.87;;;2.40;;
47367;SDS011;34646;47.964;7.982;2023-02-11T07:23:49;4.20;;;2.50;;
47367;SDS011;34646;47.964;7.982;2023-02-11T07:29:51;7.37;;;2.80;;
47367;SDS011;34646;47.964;7.982;2023-02-11T07:35:52;3.40;;;2.30;;
47367;SDS011;34646;47.964;7.982;2023-02-11T07:41:53;3.17;;;2.37;;
47367;SDS011;34646;47.964;7.982;2023-02-11T07:47:54;4.30;;;2.10;;
47367;SDS011;34646;47.964;7.982;2023-02-11T07:53:56;5.20;;;2.73;;
47367;SDS011;34646;47.964;7.982;2023-02-11T07:59:57;4.20;;;2.28;;
47367;SDS011;34646;47.964;7.982;2023-02-11T08:06:02;3.23;;;2.03;;
47367;SDS011;34646;47.964;7.982;2023-02-11T08:12:04;7.72;;;2.30;;
47367;SDS011;34646;47.964;7.982;2023-02-11T08:18:04;3.67;;;2.50;;
47367;SDS011;34646;47.964;7.982;2023-02-11T08:24:07;10.75;;;2.95;;
47367;SDS011;34646;47.964;7.982;2023-02-11T08:30:09;4.20;;;2.27;;
47367;SDS011;34646;47.964;7.982;2023-02-11T08:36:11;4.07;;;2.50;;
47367;SDS011;34646;47.964;7.982;2023-02-11T08:42:13;8.77;;;2.47;;
47367;SDS011;34646;47.964;7.982;2023-02-11T08:48:14;6.77;;;2.40;;
47367;SDS011;34646;47.964;7.982;2023-02-11T08:54:16;5.13;;;2.43;;
47367;SDS011;34646;47.964;7.982;2023-02-11T09:00:17;6.43;;;2.77;;
47367;SDS011;34646;47.964;7.982;2023-02-11T09:06:19;11.60;;;4.10;;
47367;SDS011;34646;47.964;7.982;2023-02-11T09:12:21;8.93;;;3.40;;
47367;SDS011;34646;47.964;7.982;2023-02-11T09:18:22;13.90;;;4.07;;
47367;SDS011;34646;47.964;7.982;2023-02-11T09:24:23;16.73;;;4.30;;
47367;SDS011;34646;47.964;7.982;2023-02-11T09:30:24;16.50;;;4.83;;
47367;SDS011;34646;47.964;7.982;2023-02-11T09:36:27;15.00;;;4.80;;
47367;SDS011;34646;47.964;7.982;2023-02-11T09:48:35;22.43;;;4.87;;
47367;SDS011;34646;47.964;7.982;2023-02-11T10:00:50;22.98;;;5.55;;
47367;SDS011;34646;47.964;7.982;2023-02-11T10:07:15;16.90;;;4.55;;
47367;SDS011;34646;47.964;7.982;2023-02-11T10:19:45;14.53;;;4.50;;
47367;SDS011;34646;47.964;7.982;2023-02-11T10:25:53;17.45;;;5.15;;
47367;SDS011;34646;47.964;7.982;2023-02-11T10:31:56;15.90;;;4.40;;
47367;SDS011;34646;47.964;7.982;2023-02-11T10:37:59;15.32;;;5.00;;
47367;SDS011;34646;47.964;7.982;2023-02-11T10:44:00;19.80;;;4.07;;
47367;SDS011;34646;47.964;7.982;2023-02-11T10:50:06;15.03;;;4.47;;
47367;SDS011;34646;47.964;7.982;2023-02-11T10:56:20;16.17;;;4.47;;
47367;SDS011;34646;47.964;7.982;2023-02-11T11:02:29;21.20;;;4.95;;
47367;SDS011;34646;47.964;7.982;2023-02-11T11:08:44;25.70;;;5.28;;
47367;SDS011;34646;47.964;7.982;2023-02-11T11:21:24;11.40;;;4.07;;
47367;SDS011;34646;47.964;7.982;2023-02-11T11:27:29;15.57;;;4.30;;
47367;SDS011;34646;47.964;7.982;2023-02-11T11:33:32;17.90;;;4.53;;
47367;SDS011;34646;47.964;7.982;2023-02-11T11:39:34;17.73;;;4.32;;
47367;SDS011;34646;47.964;7.982;2023-02-11T11:45:35;15.53;;;4.47;;
47367;SDS011;34646;47.964;7.982;2023-02-11T11:51:36;12.50;;;3.83;;
47367;SDS011;34646;47.964;7.982;2023-02-11T11:57:40;10.90;;;4.03;;
47367;SDS011;34646;47.964;7.982;2023-02-11T12:36:12;12.38;;;3.47;;
47367;SDS011;34646;47.964;7.982;2023-02-11T12:55:28;11.23;;;3.88;;
47367;SDS011;34646;47.964;7.982;2023-02-11T13:01:37;13.77;;;3.75;;
47367;SDS011;34646;47.964;7.982;2023-02-11T13:07:42;11.25;;;3.72;;
47367;SDS011;34646;47.964;7.982;2023-02-11T13:27:37;13.38;;;3.78;;
47367;SDS011;34646;47.964;7.982;2023-02-11T13:33:47;9.38;;;3.88;;
47367;SDS011;34646;47.964;7.982;2023-02-11T13:46:26;14.20;;;5.72;;
47367;SDS011;34646;47.964;7.982;2023-02-11T13:52:30;20.35;;;6.03;;
47367;SDS011;34646;47.964;7.982;2023-02-11T13:58:34;13.68;;;4.90;;
47367;SDS011;34646;47.964;7.982;2023-02-11T14:17:29;19.60;;;4.85;;
47367;SDS011;34646;47.964;7.982;2023-02-11T14:23:31;14.73;;;5.63;;
47367;SDS011;34646;47.964;7.982;2023-02-11T14:42:47;10.70;;;4.25;;
47367;SDS011;34646;47.964;7.982;2023-02-11T14:48:49;11.75;;;3.55;;
47367;SDS011;34646;47.964;7.982;2023-02-11T14:55:15;13.95;;;3.92;;
47367;SDS011;34646;47.964;7.982;2023-02-11T15:01:29;10.73;;;4.20;;
47367;SDS011;34646;47.964;7.982;2023-02-11T15:07:33;9.50;;;4.53;;
47367;SDS011;34646;47.964;7.982;2023-02-11T15:13:34;9.53;;;4.47;;
47367;SDS011;34646;47.964;7.982;2023-02-11T15:19:38;7.67;;;3.90;;
47367;SDS011;34646;47.964;7.982;2023-02-11T15:25:44;7.10;;;3.70;;
47367;SDS011;34646;47.964;7.982;2023-02-11T15:32:05;6.45;;;3.58;;
47367;SDS011;34646;47.964;7.982;2023-02-11T15:38:09;9.98;;;4.18;;
47367;SDS011;34646;47.964;7.982;2023-02-11T15:44:28;12.00;;;4.57;;
47367;SDS011;34646;47.964;7.982;2023-02-11T15:50:31;8.10;;;4.63;;
47367;SDS011;34646;47.964;7.982;2023-02-11T15:56:39;8.02;;;4.13;;
47367;SDS011;34646;47.964;7.982;2023-02-11T16:02:43;8.48;;;4.32;;
47367;SDS011;34646;47.964;7.982;2023-02-11T16:08:55;29.88;;;5.03;;
47367;SDS011;34646;47.964;7.982;2023-02-11T16:14:56;18.70;;;4.83;;
47367;SDS011;34646;47.964;7.982;2023-02-11T16:20:59;17.77;;;4.32;;
47367;SDS011;34646;47.964;7.982;2023-02-11T16:27:02;10.13;;;4.70;;
47367;SDS011;34646;47.964;7.982;2023-02-11T16:33:07;9.20;;;4.43;;
47367;SDS011;34646;47.964;7.982;2023-02-11T16:39:09;10.85;;;4.15;;
47367;SDS011;34646;47.964;7.982;2023-02-11T16:45:11;11.27;;;5.00;;
47367;SDS011;34646;47.964;7.982;2023-02-11T16:51:12;10.52;;;4.85;;
47367;SDS011;34646;47.964;7.982;2023-02-11T16:57:15;10.83;;;3.87;;
47367;SDS011;34646;47.964;7.982;2023-02-11T17:03:20;8.90;;;4.10;;
47367;SDS011;34646;47.964;7.982;2023-02-11T17:09:24;10.75;;;4.07;;
47367;SDS011;34646;47.964;7.982;2023-02-11T17:15:26;7.82;;;3.72;;
47367;SDS011;34646;47.964;7.982;2023-02-11T17:21:27;13.70;;;4.03;;
47367;SDS011;34646;47.964;7.982;2023-02-11T17:27:30;8.90;;;3.90;;
47367;SDS011;34646;47.964;7.982;2023-02-11T17:33:32;10.03;;;4.43;;
47367;SDS011;34646;47.964;7.982;2023-02-11T17:39:33;15.07;;;6.27;;
47367;SDS011;34646;47.964;7.982;2023-02-11T17:45:38;17.67;;;6.63;;
47367;SDS011;34646;47.964;7.982;2023-02-11T17:51:40;13.00;;;6.60;;
47367;SDS011;34646;47.964;7.982;2023-02-11T17:57:41;15.97;;;6.07;;
47367;SDS011;34646;47.964;7.982;2023-02-11T18:03:42;11.63;;;5.13;;
47367;SDS011;34646;47.964;7.982;2023-02-11T18:09:43;14.70;;;6.20;;
47367;SDS011;34646;47.964;7.982;2023-02-11T18:15:43;8.97;;;5.60;;
47367;SDS011;34646;47.964;7.982;2023-02-11T18:21:45;9.87;;;5.63;;
47367;SDS011;34646;47.964;7.982;2023-02-11T18:27:49;9.23;;;5.70;;
47367;SDS011;34646;47.964;7.982;2023-02-11T18:33:50;11.63;;;5.27;;
47367;SDS011;34646;47.964;7.982;2023-02-11T18:39:52;17.83;;;5.88;;
47367;SDS011;34646;47.964;7.982;2023-02-11T18:45:53;25.43;;;5.87;;
47367;SDS011;34646;47.964;7.982;2023-02-11T18:51:54;18.30;;;9.27;;
47367;SDS011;34646;47.964;7.982;2023-02-11T18:57:57;15.00;;;6.05;;
47367;SDS011;34646;47.964;7.982;2023-02-11T19:03:59;16.27;;;5.97;;
47367;SDS011;34646;47.964;7.982;2023-02-11T19:10:04;10.77;;;5.47;;
47367;SDS011;34646;47.964;7.982;2023-02-11T19:16:06;14.70;;;4.95;;
47367;SDS011;34646;47.964;7.982;2023-02-11T19:22:07;8.43;;;4.78;;
47367;SDS011;34646;47.964;7.982;2023-02-11T19:28:09;15.50;;;4.65;;
47367;SDS011;34646;47.964;7.982;2023-02-11T19:34:10;12.07;;;4.37;;
47367;SDS011;34646;47.964;7.982;2023-02-11T19:40:13;10.45;;;4.57;;
47367;SDS011;34646;47.964;7.982;2023-02-11T19:46:15;9.82;;;4.53;;
47367;SDS011;34646;47.964;7.982;2023-02-11T19:52:16;8.43;;;4.17;;
47367;SDS011;34646;47.964;7.982;2023-02-11T19:58:17;7.33;;;3.87;;
47367;SDS011;34646;47.964;7.982;2023-02-11T20:04:18;10.00;;;4.43;;
47367;SDS011;34646;47.964;7.982;2023-02-11T20:10:19;9.90;;;3.80;;
47367;SDS011;34646;47.964;7.982;2023-02-11T20:16:21;7.63;;;4.03;;
47367;SDS011;34646;47.964;7.982;2023-02-11T20:22:22;8.23;;;4.60;;
47367;SDS011;34646;47.964;7.982;2023-02-11T20:28:23;7.80;;;3.83;;
47367;SDS011;34646;47.964;7.982;2023-02-11T20:34:24;8.20;;;4.20;;
47367;SDS011;34646;47.964;7.982;2023-02-11T20:40:25;9.13;;;3.83;;
47367;SDS011;34646;47.964;7.982;2023-02-11T20:46:27;7.10;;;3.70;;
47367;SDS011;34646;47.964;7.982;2023-02-11T20:52:29;9.55;;;3.67;;
47367;SDS011;34646;47.964;7.982;2023-02-11T20:58:30;11.70;;;3.40;;
47367;SDS011;34646;47.964;7.982;2023-02-11T21:04:31;8.00;;;3.60;;
47367;SDS011;34646;47.964;7.982;2023-02-11T21:10:32;10.90;;;3.90;;
47367;SDS011;34646;47.964;7.982;2023-02-11T21:16:33;8.10;;;3.00;;
47367;SDS011;34646;47.964;7.982;2023-02-11T21:22:34;6.73;;;3.40;;
47367;SDS011;34646;47.964;7.982;2023-02-11T21:28:36;9.30;;;3.20;;
47367;SDS011;34646;47.964;7.982;2023-02-11T21:34:37;5.30;;;3.57;;
47367;SDS011;34646;47.964;7.982;2023-02-11T21:40:38;6.97;;;3.17;;
47367;SDS011;34646;47.964;7.982;2023-02-11T21:46:39;11.03;;;3.27;;
47367;SDS011;34646;47.964;7.982;2023-02-11T21:52:40;6.97;;;3.00;;
47367;SDS011;34646;47.964;7.982;2023-02-11T21:58:41;6.37;;;3.17;;
47367;SDS011;34646;47.964;7.982;2023-02-11T22:04:42;6.03;;;3.00;;
47367;SDS011;34646;47.964;7.982;2023-02-11T22:10:43;7.50;;;2.90;;
47367;SDS011;34646;47.964;7.982;2023-02-11T22:16:44;10.83;;;3.80;;
47367;SDS011;34646;47.964;7.982;2023-02-11T22:22:46;10.80;;;3.57;;
47367;SDS011;34646;47.964;7.982;2023-02-11T22:28:47;6.97;;;3.30;;
47367;SDS011;34646;47.964;7.982;2023-02-11T22:34:49;6.63;;;3.38;;
47367;SDS011;34646;47.964;7.982;2023-02-11T22:40:50;4.80;;;2.93;;
47367;SDS011;34646;47.964;7.982;2023-02-11T22:46:51;6.50;;;2.90;;
47367;SDS011;34646;47.964;7.982;2023-02-11T22:52:52;3.92;;;2.55;;
47367;SDS011;34646;47.964;7.982;2023-02-11T22:58:55;3.93;;;2.53;;
47367;SDS011;34646;47.964;7.982;2023-02-11T23:04:57;5.70;;;2.78;;
47367;SDS011;34646;47.964;7.982;2023-02-11T23:11:02;6.17;;;2.57;;
47367;SDS011;34646;47.964;7.982;2023-02-11T23:17:08;4.93;;;2.72;;
47367;SDS011;34646;47.964;7.982;2023-02-11T23:23:09;5.33;;;2.97;;
47367;SDS011;34646;47.964;7.982;2023-02-11T23:29:11;8.50;;;3.03;;
47367;SDS011;34646;47.964;7.982;2023-02-11T23:35:12;4.55;;;2.50;;
47367;SDS011;34646;47.964;7.982;2023-02-11T23:41:21;5.10;;;2.45;;
47367;SDS011;34646;47.964;7.982;2023-02-11T23:47:22;4.90;;;2.47;;
47367;SDS011;34646;47.964;7.982;2023-02-11T23:53:23;5.63;;;2.83;;
47367;SDS011;34646;47.964;7.982;2023-02-11T23:59:24;3.53;;;2.60;;
